createdAt,value
2023-05-10T00:00:07.253Z,56.73
2023-05-10T00:01:12.827Z,56.71
2023-05-10T00:02:18.399Z,56.86
2023-05-10T00:03:24.172Z,56.52
2023-05-10T00:04:29.641Z,56.77
2023-05-10T00:05:34.973Z,56.95
2023-05-10T00:06:40.337Z,56.73
2023-05-10T00:07:45.909Z,56.88
2023-05-10T00:08:51.318Z,57.01
2023-05-10T00:09:56.680Z,57.01
2023-05-10T00:11:02.020Z,56.64
2023-05-10T00:12:07.347Z,56.72
2023-05-10T00:13:12.869Z,56.88
2023-05-10T00:14:18.267Z,56.69
2023-05-10T00:15:23.643Z,57
2023-05-10T00:16:29.099Z,56.85
2023-05-10T00:17:34.565Z,57.12
2023-05-10T00:18:39.906Z,56.95
2023-05-10T00:19:45.227Z,57.06
2023-05-10T00:20:50.582Z,56.87
2023-05-10T00:21:55.920Z,56.67
2023-05-10T00:23:01.223Z,56.86
2023-05-10T00:24:06.612Z,56.81
2023-05-10T00:25:11.937Z,57.04
2023-05-10T00:26:17.343Z,56.84
2023-05-10T00:27:22.681Z,57.18
2023-05-10T00:28:28.026Z,56.71
2023-05-10T00:29:33.401Z,57.2
2023-05-10T00:30:38.765Z,57.26
2023-05-10T00:31:44.167Z,57.23
2023-05-10T00:32:49.666Z,56.62
2023-05-10T00:33:55.048Z,57.18
2023-05-10T00:35:00.404Z,57.11
2023-05-10T00:36:05.732Z,57.18
2023-05-10T00:37:11.090Z,57.35
2023-05-10T00:38:18.929Z,57.1
2023-05-10T00:39:24.281Z,57.18
2023-05-10T00:40:29.617Z,56.93
2023-05-10T00:41:34.940Z,56.94
2023-05-10T00:42:40.298Z,57.17
2023-05-10T00:43:45.638Z,57.67
2023-05-10T00:44:50.965Z,57.36
2023-05-10T00:45:56.390Z,57.25
2023-05-10T00:47:01.780Z,57.76
2023-05-10T00:48:07.358Z,57.85
2023-05-10T00:49:12.752Z,57.17
2023-05-10T00:50:19.049Z,57.62
2023-05-10T00:51:24.458Z,57.83
2023-05-10T00:52:29.851Z,57.95
2023-05-10T00:53:35.229Z,57.2
2023-05-10T00:54:40.573Z,57.48
2023-05-10T00:55:45.955Z,57.49
2023-05-10T00:56:51.348Z,57.26
2023-05-10T00:57:56.664Z,57.37
2023-05-10T00:59:02.028Z,57.67
2023-05-10T01:00:07.380Z,57.9
2023-05-10T01:01:12.842Z,57.68
2023-05-10T01:02:18.281Z,57.34
2023-05-10T01:03:23.875Z,57.34
2023-05-10T01:04:29.754Z,57.76
2023-05-10T01:05:35.146Z,57.67
2023-05-10T01:06:40.455Z,57.62
2023-05-10T01:07:46.083Z,57.85
2023-05-10T01:08:51.390Z,57.79
2023-05-10T01:09:56.721Z,57.53
2023-05-10T01:11:02.090Z,57.92
2023-05-10T01:12:07.481Z,57.69
2023-05-10T01:13:13.130Z,57.98
2023-05-10T01:14:18.464Z,57.66
2023-05-10T01:15:23.885Z,58.06
2023-05-10T01:16:29.502Z,57.7
2023-05-10T01:17:34.980Z,57.66
2023-05-10T01:18:40.368Z,57.78
2023-05-10T01:19:45.709Z,57.78
2023-05-10T01:20:51.080Z,57.88
2023-05-10T01:21:56.434Z,58.03
2023-05-10T01:23:01.803Z,57.76
2023-05-10T01:24:07.190Z,57.64
2023-05-10T01:25:12.543Z,57.63
2023-05-10T01:26:18.020Z,57.99
2023-05-10T01:27:23.432Z,57.18
2023-05-10T01:28:28.930Z,57.29
2023-05-10T01:29:34.247Z,57.82
2023-05-10T01:30:39.599Z,57.79
2023-05-10T01:31:45.281Z,57.61
2023-05-10T01:32:50.793Z,58.12
2023-05-10T01:33:56.139Z,57.19
2023-05-10T01:35:01.562Z,57.43
2023-05-10T01:36:06.905Z,58.06
2023-05-10T01:37:12.204Z,57.88
2023-05-10T01:38:17.524Z,57.68
2023-05-10T01:39:22.851Z,57.9
2023-05-10T01:40:28.305Z,57.66
2023-05-10T01:41:33.736Z,57.89
2023-05-10T01:42:39.123Z,57.86
2023-05-10T01:43:44.464Z,58.11
2023-05-10T01:44:49.794Z,57.95
2023-05-10T01:45:55.128Z,57.87
2023-05-10T01:47:00.763Z,57.43
2023-05-10T01:48:06.497Z,58
2023-05-10T01:49:11.876Z,57.53
2023-05-10T01:50:18.533Z,57.95
2023-05-10T01:51:24.166Z,57.66
2023-05-10T01:52:29.486Z,57.88
2023-05-10T01:53:34.870Z,57.93
2023-05-10T01:54:40.307Z,58.01
2023-05-10T01:55:45.667Z,57.98
2023-05-10T01:56:51.004Z,57.89
2023-05-10T01:57:56.369Z,57.8
2023-05-10T01:59:01.702Z,58.01
2023-05-10T02:00:07.091Z,57.84
2023-05-10T02:01:12.585Z,57.86
2023-05-10T02:02:17.974Z,57.87
2023-05-10T02:03:23.486Z,57.59
2023-05-10T02:04:28.878Z,57.65
2023-05-10T02:05:34.224Z,57.8
2023-05-10T02:06:39.561Z,58.15
2023-05-10T02:07:44.952Z,58.08
2023-05-10T02:08:50.285Z,57.94
2023-05-10T02:09:55.645Z,58.04
2023-05-10T02:11:00.986Z,58.13
2023-05-10T02:12:06.331Z,57.92
2023-05-10T02:13:11.965Z,58.13
2023-05-10T02:14:17.428Z,57.74
2023-05-10T02:15:22.783Z,58.28
2023-05-10T02:16:28.161Z,57.82
2023-05-10T02:17:33.583Z,58.13
2023-05-10T02:18:39.029Z,58.16
2023-05-10T02:19:44.617Z,57.93
2023-05-10T02:20:49.962Z,57.93
2023-05-10T02:21:55.314Z,58.24
2023-05-10T02:23:00.704Z,57.94
2023-05-10T02:24:06.058Z,58.1
2023-05-10T02:25:11.399Z,58.36
2023-05-10T02:26:16.712Z,58.43
2023-05-10T02:27:22.187Z,58.23
2023-05-10T02:28:27.561Z,58.34
2023-05-10T02:29:32.945Z,58.3
2023-05-10T02:30:38.267Z,58.44
2023-05-10T02:31:43.641Z,58.18
2023-05-10T02:32:49.224Z,58.53
2023-05-10T02:33:54.562Z,58.27
2023-05-10T02:34:59.883Z,58.2
2023-05-10T02:36:05.213Z,58.28
2023-05-10T02:37:10.617Z,57.84
2023-05-10T02:38:15.934Z,58.06
2023-05-10T02:39:21.292Z,58.38
2023-05-10T02:40:29.876Z,58.45
2023-05-10T02:41:35.208Z,58.64
2023-05-10T02:42:40.580Z,58.33
2023-05-10T02:43:45.952Z,58.41
2023-05-10T02:44:51.269Z,58.29
2023-05-10T02:45:56.721Z,58.77
2023-05-10T02:47:02.109Z,58.4
2023-05-10T02:48:07.601Z,58.52
2023-05-10T02:49:12.987Z,58.72
2023-05-10T02:50:19.242Z,58.48
2023-05-10T02:51:24.674Z,58.77
2023-05-10T02:52:30.042Z,58.7
2023-05-10T02:53:35.414Z,58.71
2023-05-10T02:54:40.871Z,58.65
2023-05-10T02:55:46.212Z,58.54
2023-05-10T02:56:51.530Z,58.73
2023-05-10T02:57:56.898Z,58.84
2023-05-10T02:59:02.211Z,58.75
2023-05-10T03:00:07.551Z,58.63
2023-05-10T03:01:12.989Z,58.9
2023-05-10T03:02:18.375Z,58.96
2023-05-10T03:03:23.739Z,58.61
2023-05-10T03:04:29.169Z,58.65
2023-05-10T03:05:34.524Z,58.82
2023-05-10T03:06:39.825Z,58.73
2023-05-10T03:07:45.147Z,58.81
2023-05-10T03:08:50.504Z,58.74
2023-05-10T03:09:55.888Z,58.82
2023-05-10T03:11:01.244Z,58.89
2023-05-10T03:12:06.585Z,58.91
2023-05-10T03:13:12.139Z,58.82
2023-05-10T03:14:17.549Z,58.88
2023-05-10T03:15:22.918Z,58.92
2023-05-10T03:16:28.582Z,58.62
2023-05-10T03:17:34.136Z,58.67
2023-05-10T03:18:39.554Z,58.84
2023-05-10T03:19:44.871Z,58.73
2023-05-10T03:20:51.235Z,58.86
2023-05-10T03:21:56.614Z,58.8
2023-05-10T03:23:01.963Z,58.98
2023-05-10T03:24:07.367Z,58.97
2023-05-10T03:25:12.697Z,58.69
2023-05-10T03:26:18.033Z,58.55
2023-05-10T03:27:23.395Z,58.72
2023-05-10T03:28:28.733Z,58.16
2023-05-10T03:29:34.181Z,58.48
2023-05-10T03:30:39.564Z,58.75
2023-05-10T03:31:45.104Z,58.57
2023-05-10T03:32:50.682Z,58.84
2023-05-10T03:33:56.070Z,58.68
2023-05-10T03:35:01.488Z,58.71
2023-05-10T03:36:06.842Z,58.9
2023-05-10T03:37:12.184Z,58.7
2023-05-10T03:38:17.525Z,58.72
2023-05-10T03:39:22.853Z,58.76
2023-05-10T03:40:28.204Z,58.89
2023-05-10T03:41:33.516Z,58.76
2023-05-10T03:42:38.877Z,58.88
2023-05-10T03:43:44.206Z,58.92
2023-05-10T03:44:49.560Z,58.92
2023-05-10T03:45:54.905Z,58.87
2023-05-10T03:47:00.445Z,59
2023-05-10T03:48:06.114Z,58.87
2023-05-10T03:49:12.255Z,59.08
2023-05-10T03:50:19.141Z,59.14
2023-05-10T03:51:24.587Z,59.01
2023-05-10T03:52:29.935Z,58.93
2023-05-10T03:53:35.347Z,59.01
2023-05-10T03:54:40.716Z,59.1
2023-05-10T03:55:46.027Z,59.21
2023-05-10T03:56:51.367Z,58.69
2023-05-10T03:57:56.686Z,58.99
2023-05-10T03:59:02.031Z,57.76
2023-05-10T04:00:07.334Z,58.11
2023-05-10T04:01:12.672Z,57.21
2023-05-10T04:02:18.180Z,57.08
2023-05-10T04:03:23.777Z,57.17
2023-05-10T04:04:29.128Z,56.67
2023-05-10T04:05:34.487Z,55.69
2023-05-10T04:06:40.038Z,56.81
2023-05-10T04:07:45.446Z,55.71
2023-05-10T04:08:50.783Z,56.16
2023-05-10T04:09:56.131Z,56.24
2023-05-10T04:11:01.494Z,55.87
2023-05-10T04:12:08.006Z,55.82
2023-05-10T04:13:14.421Z,56.17
2023-05-10T04:14:19.790Z,56.13
2023-05-10T04:15:25.145Z,55.75
2023-05-10T04:16:30.788Z,55.79
2023-05-10T04:17:36.206Z,55.71
2023-05-10T04:18:41.595Z,55.6
2023-05-10T04:19:46.956Z,55.58
2023-05-10T04:20:52.320Z,55.51
2023-05-10T04:21:57.665Z,55.38
2023-05-10T04:23:03.017Z,55.42
2023-05-10T04:24:08.346Z,55.29
2023-05-10T04:25:13.689Z,55.28
2023-05-10T04:26:19.017Z,55.2
2023-05-10T04:27:24.397Z,55.29
2023-05-10T04:28:29.794Z,55.17
2023-05-10T04:29:35.118Z,55.17
2023-05-10T04:30:40.625Z,55
2023-05-10T04:31:45.973Z,55.02
2023-05-10T04:32:51.537Z,55
2023-05-10T04:33:56.997Z,54.87
2023-05-10T04:35:02.340Z,54.96
2023-05-10T04:36:07.696Z,54.92
2023-05-10T04:37:13.024Z,54.86
2023-05-10T04:38:18.326Z,54.84
2023-05-10T04:39:23.650Z,54.83
2023-05-10T04:40:29.022Z,54.77
2023-05-10T04:41:34.391Z,54.83
2023-05-10T04:42:39.693Z,54.83
2023-05-10T04:43:45.085Z,54.82
2023-05-10T04:44:50.419Z,54.76
2023-05-10T04:45:55.869Z,54.66
2023-05-10T04:47:01.225Z,54.67
2023-05-10T04:48:06.681Z,54.82
2023-05-10T04:49:12.071Z,54.72
2023-05-10T04:50:18.251Z,54.63
2023-05-10T04:51:23.735Z,54.67
2023-05-10T04:52:29.069Z,54.57
2023-05-10T04:53:34.429Z,54.63
2023-05-10T04:54:39.761Z,54.58
2023-05-10T04:55:45.091Z,54.56
2023-05-10T04:56:50.439Z,54.64
2023-05-10T04:57:55.807Z,54.63
2023-05-10T04:59:01.156Z,54.55
2023-05-10T05:00:06.514Z,54.56
2023-05-10T05:01:12.134Z,54.6
2023-05-10T05:02:17.464Z,54.51
2023-05-10T05:03:23.187Z,54.55
2023-05-10T05:04:28.667Z,54.49
2023-05-10T05:05:33.971Z,54.5
2023-05-10T05:06:39.343Z,54.64
2023-05-10T05:07:44.743Z,54.54
2023-05-10T05:08:50.377Z,54.49
2023-05-10T05:09:55.858Z,54.54
2023-05-10T05:11:02.192Z,54.55
2023-05-10T05:12:07.529Z,54.5
2023-05-10T05:13:12.990Z,54.49
2023-05-10T05:14:18.374Z,54.43
2023-05-10T05:15:23.729Z,54.41
2023-05-10T05:16:29.222Z,54.49
2023-05-10T05:17:34.684Z,54.49
2023-05-10T05:18:40.006Z,54.59
2023-05-10T05:19:45.418Z,54.51
2023-05-10T05:20:50.818Z,54.54
2023-05-10T05:21:56.127Z,54.56
2023-05-10T05:23:01.471Z,54.54
2023-05-10T05:24:06.838Z,54.5
2023-05-10T05:25:12.229Z,54.51
2023-05-10T05:26:18.596Z,54.6
2023-05-10T05:27:23.948Z,54.59
2023-05-10T05:28:29.302Z,54.57
2023-05-10T05:29:34.680Z,54.48
2023-05-10T05:30:39.998Z,54.48
2023-05-10T05:31:45.484Z,54.45
2023-05-10T05:32:51.372Z,54.43
2023-05-10T05:33:56.773Z,54.46
2023-05-10T05:35:02.165Z,54.51
2023-05-10T05:36:07.477Z,54.59
2023-05-10T05:37:12.792Z,54.53
2023-05-10T05:38:18.188Z,54.47
2023-05-10T05:39:23.590Z,54.5
2023-05-10T05:40:28.927Z,54.58
2023-05-10T05:41:34.304Z,54.46
2023-05-10T05:42:39.704Z,54.58
2023-05-10T05:43:45.085Z,54.47
2023-05-10T05:44:50.440Z,54.51
2023-05-10T05:45:55.996Z,54.52
2023-05-10T05:47:01.362Z,54.47
2023-05-10T05:48:06.866Z,54.4
2023-05-10T05:49:12.335Z,54.38
2023-05-10T05:50:17.682Z,54.31
2023-05-10T05:51:23.002Z,54.38
2023-05-10T05:52:28.364Z,54.36
2023-05-10T05:53:33.696Z,54.37
2023-05-10T05:54:39.163Z,54.37
2023-05-10T05:55:44.480Z,54.33
2023-05-10T05:56:50.021Z,54.31
2023-05-10T05:57:55.340Z,54.33
2023-05-10T05:59:00.703Z,54.34
2023-05-10T06:00:06.142Z,54.37
2023-05-10T06:01:11.497Z,54.38
2023-05-10T06:02:17.014Z,54.36
2023-05-10T06:03:22.792Z,54.33
2023-05-10T06:04:28.647Z,54.32
2023-05-10T06:05:34.138Z,54.27
2023-05-10T06:06:39.472Z,54.27
2023-05-10T06:07:44.797Z,54.31
2023-05-10T06:08:50.158Z,54.26
2023-05-10T06:09:55.529Z,54.26
2023-05-10T06:11:00.862Z,54.27
2023-05-10T06:12:06.219Z,54.24
2023-05-10T06:13:11.761Z,54.21
2023-05-10T06:14:17.101Z,54.18
2023-05-10T06:15:22.508Z,54.24
2023-05-10T06:16:27.942Z,54.27
2023-05-10T06:17:33.400Z,54.25
2023-05-10T06:18:38.730Z,54.2
2023-05-10T06:19:44.088Z,54.33
2023-05-10T06:20:49.496Z,54.16
2023-05-10T06:21:56.579Z,54.17
2023-05-10T06:23:01.888Z,54.19
2023-05-10T06:24:07.234Z,54.09
2023-05-10T06:25:12.640Z,54.29
2023-05-10T06:26:18.018Z,54.17
2023-05-10T06:27:23.374Z,54.12
2023-05-10T06:28:28.719Z,54.18
2023-05-10T06:29:34.049Z,54.19
2023-05-10T06:30:41.764Z,54.17
2023-05-10T06:31:47.422Z,54.18
2023-05-10T06:32:53.210Z,54.1
2023-05-10T06:33:59.581Z,54.12
2023-05-10T06:35:04.911Z,54.06
2023-05-10T06:36:10.329Z,54.06
2023-05-10T06:37:15.713Z,54
2023-05-10T06:38:21.126Z,54.02
2023-05-10T06:39:26.504Z,54.1
2023-05-10T06:40:31.882Z,54.16
2023-05-10T06:41:37.239Z,54.03
2023-05-10T06:42:42.612Z,53.94
2023-05-10T06:43:47.978Z,53.22
2023-05-10T06:44:53.306Z,52.59
2023-05-10T06:45:58.767Z,52.32
2023-05-10T06:47:04.184Z,52.07
2023-05-10T06:48:09.679Z,51.79
2023-05-10T06:49:15.036Z,51.2
2023-05-10T06:50:20.356Z,51.11
2023-05-10T06:51:25.709Z,51.31
2023-05-10T06:52:31.038Z,50.75
2023-05-10T06:53:36.369Z,50.56
2023-05-10T06:54:41.738Z,50.5
2023-05-10T06:55:47.075Z,50.31
2023-05-10T06:56:52.399Z,49.85
2023-05-10T06:57:57.759Z,49.75
2023-05-10T06:59:03.319Z,49.62
2023-05-10T07:00:08.994Z,49.34
2023-05-10T07:01:15.020Z,49.03
2023-05-10T07:02:20.781Z,48.89
2023-05-10T07:03:26.312Z,49.03
2023-05-10T07:04:31.851Z,48.8
2023-05-10T07:05:37.789Z,48.93
2023-05-10T07:06:43.328Z,48.69
2023-05-10T07:07:48.650Z,48.74
2023-05-10T07:08:53.985Z,48.46
2023-05-10T07:09:59.367Z,48.59
2023-05-10T07:11:04.736Z,48.4
2023-05-10T07:12:16.221Z,48.64
2023-05-10T07:13:22.044Z,48.21
2023-05-10T07:14:27.428Z,48.13
2023-05-10T07:15:32.775Z,48.12
2023-05-10T07:16:38.303Z,48.13
2023-05-10T07:17:47.588Z,47.78
2023-05-10T07:18:53.032Z,48.09
2023-05-10T07:19:58.388Z,47.73
2023-05-10T07:21:03.923Z,47.5
2023-05-10T07:22:09.269Z,47.56
2023-05-10T07:23:14.577Z,47.34
2023-05-10T07:24:19.902Z,47.16
2023-05-10T07:25:25.247Z,47.07
2023-05-10T07:26:30.623Z,46.78
2023-05-10T07:27:35.990Z,46.81
2023-05-10T07:28:41.436Z,46.32
2023-05-10T07:29:46.841Z,46.53
2023-05-10T07:30:52.315Z,46.28
2023-05-10T07:32:01.350Z,46.35
2023-05-10T07:33:07.908Z,46.22
2023-05-10T07:34:13.256Z,46.41
2023-05-10T07:35:19.237Z,46.23
2023-05-10T07:36:24.580Z,46.16
2023-05-10T07:37:29.950Z,46.4
2023-05-10T07:38:35.365Z,46.08
2023-05-10T07:39:40.729Z,46.37
2023-05-10T07:40:46.120Z,46.62
2023-05-10T07:41:51.459Z,46.06
2023-05-10T07:42:56.796Z,46.03
2023-05-10T07:44:02.206Z,45.86
2023-05-10T07:45:07.545Z,45.96
2023-05-10T07:46:13.047Z,45.93
2023-05-10T07:47:18.419Z,46.16
2023-05-10T07:48:23.762Z,46.29
2023-05-10T07:49:29.085Z,45.72
2023-05-10T07:50:34.402Z,46.08
2023-05-10T07:51:39.812Z,45.65
2023-05-10T07:52:45.133Z,45.7
2023-05-10T07:53:50.450Z,45.68
2023-05-10T07:54:55.882Z,45.42
2023-05-10T07:56:01.208Z,45.78
2023-05-10T07:57:06.557Z,45.56
2023-05-10T07:58:11.943Z,45.51
2023-05-10T07:59:17.262Z,45.49
2023-05-10T08:00:22.719Z,45.5
2023-05-10T08:01:28.112Z,45.68
2023-05-10T08:02:33.751Z,45.51
2023-05-10T08:03:39.521Z,45.31
2023-05-10T08:04:45.195Z,45.38
2023-05-10T08:05:50.680Z,45.57
2023-05-10T08:06:56.046Z,45.3
2023-05-10T08:08:01.354Z,45.32
2023-05-10T08:09:06.712Z,45.09
2023-05-10T08:10:12.030Z,45.24
2023-05-10T08:11:18.475Z,45.34
2023-05-10T08:12:24.075Z,45.09
2023-05-10T08:13:29.442Z,44.97
2023-05-10T08:14:34.771Z,45.17
2023-05-10T08:15:40.219Z,45.3
2023-05-10T08:16:45.578Z,44.94
2023-05-10T08:17:51.114Z,45.24
2023-05-10T08:18:56.667Z,44.81
2023-05-10T08:20:02.110Z,45.1
2023-05-10T08:21:07.429Z,44.85
2023-05-10T08:22:12.760Z,45.02
2023-05-10T08:23:18.096Z,44.84
2023-05-10T08:24:23.519Z,44.89
2023-05-10T08:25:28.813Z,45.03
2023-05-10T08:26:34.133Z,44.98
2023-05-10T08:27:39.473Z,44.93
2023-05-10T08:28:44.869Z,45.17
2023-05-10T08:29:53.159Z,44.95
2023-05-10T08:30:58.566Z,45.01
2023-05-10T08:32:03.888Z,45.16
2023-05-10T08:33:09.391Z,45.16
2023-05-10T08:34:14.845Z,45.01
2023-05-10T08:35:20.496Z,45.1
2023-05-10T08:36:25.864Z,45.16
2023-05-10T08:37:31.196Z,45.15
2023-05-10T08:38:36.536Z,45.01
2023-05-10T08:39:41.975Z,44.9
2023-05-10T08:40:47.372Z,44.8
2023-05-10T08:41:52.710Z,44.77
2023-05-10T08:42:58.116Z,45.09
2023-05-10T08:44:03.476Z,44.8
2023-05-10T08:45:08.825Z,44.76
2023-05-10T08:46:14.396Z,44.91
2023-05-10T08:47:19.860Z,44.9
2023-05-10T08:48:25.235Z,45
2023-05-10T08:49:30.617Z,44.89
2023-05-10T08:50:35.975Z,44.9
2023-05-10T08:51:43.883Z,45.04
2023-05-10T08:52:49.323Z,44.75
2023-05-10T08:53:54.706Z,44.92
2023-05-10T08:55:00.081Z,44.84
2023-05-10T08:56:05.532Z,44.6
2023-05-10T08:57:10.903Z,44.39
2023-05-10T08:58:16.305Z,44.46
2023-05-10T08:59:21.645Z,44.42
2023-05-10T09:00:27.017Z,44.57
2023-05-10T09:01:32.559Z,44.58
2023-05-10T09:02:37.965Z,44.5
2023-05-10T09:03:43.472Z,44.46
2023-05-10T09:04:49.173Z,44.33
2023-05-10T09:05:54.607Z,44.17
2023-05-10T09:07:00.027Z,44.09
2023-05-10T09:08:05.471Z,44.27
2023-05-10T09:09:10.798Z,44.21
2023-05-10T09:10:16.192Z,43.91
2023-05-10T09:11:21.539Z,44.07
2023-05-10T09:12:26.887Z,44.04
2023-05-10T09:13:32.228Z,43.86
2023-05-10T09:14:37.604Z,43.88
2023-05-10T09:15:42.986Z,43.76
2023-05-10T09:16:48.483Z,43.85
2023-05-10T09:17:53.944Z,43.34
2023-05-10T09:18:59.447Z,43.01
2023-05-10T09:20:04.836Z,43.07
2023-05-10T09:21:10.176Z,43.12
2023-05-10T09:22:15.587Z,42.95
2023-05-10T09:23:20.921Z,42.91
2023-05-10T09:24:26.261Z,43
2023-05-10T09:25:31.576Z,42.82
2023-05-10T09:26:37.029Z,42.8
2023-05-10T09:27:42.422Z,42.86
2023-05-10T09:28:47.750Z,42.94
2023-05-10T09:29:53.099Z,42.8
2023-05-10T09:30:58.520Z,42.85
2023-05-10T09:32:03.978Z,42.6
2023-05-10T09:33:09.521Z,42.63
2023-05-10T09:34:14.844Z,42.58
2023-05-10T09:35:20.748Z,42.7
2023-05-10T09:36:26.114Z,42.69
2023-05-10T09:37:31.463Z,42.55
2023-05-10T09:38:36.833Z,42.5
2023-05-10T09:39:42.112Z,42.44
2023-05-10T09:40:47.451Z,42.41
2023-05-10T09:41:52.784Z,42.71
2023-05-10T09:42:58.158Z,42.77
2023-05-10T09:44:03.618Z,42.41
2023-05-10T09:45:08.955Z,42.24
2023-05-10T09:46:14.385Z,42.44
2023-05-10T09:47:19.781Z,42.53
2023-05-10T09:48:25.173Z,42.19
2023-05-10T09:49:30.518Z,42.39
2023-05-10T09:50:35.911Z,42.33
2023-05-10T09:51:41.278Z,42.22
2023-05-10T09:52:46.621Z,42.28
2023-05-10T09:53:51.993Z,42.19
2023-05-10T09:54:57.369Z,42.17
2023-05-10T09:56:02.768Z,42.41
2023-05-10T09:57:08.118Z,42.16
2023-05-10T09:58:13.488Z,42.21
2023-05-10T09:59:18.836Z,42.06
2023-05-10T10:00:24.223Z,41.56
2023-05-10T10:01:29.667Z,42.03
2023-05-10T10:02:35.182Z,41.78
2023-05-10T10:03:40.598Z,41.77
2023-05-10T10:04:46.048Z,41.92
2023-05-10T10:05:51.446Z,41.83
2023-05-10T10:06:56.782Z,41.71
2023-05-10T10:08:02.109Z,41.71
2023-05-10T10:09:07.557Z,41.64
2023-05-10T10:10:12.890Z,41.78
2023-05-10T10:11:18.297Z,41.65
2023-05-10T10:12:23.663Z,41.64
2023-05-10T10:13:29.052Z,41.52
2023-05-10T10:14:34.397Z,41.53
2023-05-10T10:15:39.938Z,41.47
2023-05-10T10:17:09.958Z,41.59
2023-05-10T10:18:15.515Z,41.48
2023-05-10T10:19:20.886Z,41.58
2023-05-10T10:20:26.278Z,41.3
2023-05-10T10:21:32.262Z,41.37
2023-05-10T10:22:37.620Z,41.25
2023-05-10T10:23:42.968Z,41.53
2023-05-10T10:24:48.324Z,41.35
2023-05-10T10:25:53.701Z,42.63
2023-05-10T10:26:59.061Z,43.3
2023-05-10T10:28:04.406Z,43.13
2023-05-10T10:29:09.767Z,43.2
2023-05-10T10:30:15.310Z,43.47
2023-05-10T10:31:20.949Z,43.45
2023-05-10T10:32:26.459Z,43.94
2023-05-10T10:33:32.196Z,43.92
2023-05-10T10:34:37.583Z,44.02
2023-05-10T10:35:42.925Z,44.18
2023-05-10T10:36:48.263Z,44.14
2023-05-10T10:37:53.603Z,44.21
2023-05-10T10:38:58.928Z,44.37
2023-05-10T10:40:04.274Z,44.59
2023-05-10T10:41:09.597Z,44.47
2023-05-10T10:42:14.945Z,44.71
2023-05-10T10:43:20.428Z,44.98
2023-05-10T10:44:25.995Z,44.78
2023-05-10T10:45:31.360Z,44.89
2023-05-10T10:46:36.963Z,45.05
2023-05-10T10:47:42.748Z,44.8
2023-05-10T10:48:48.129Z,45.33
2023-05-10T10:49:53.505Z,45.59
2023-05-10T10:50:58.841Z,45.9
2023-05-10T10:52:04.178Z,45.87
2023-05-10T10:53:09.692Z,45.98
2023-05-10T10:54:15.086Z,45.91
2023-05-10T10:55:21.085Z,46.04
2023-05-10T10:56:26.509Z,46.09
2023-05-10T10:57:31.910Z,46.33
2023-05-10T10:58:37.265Z,46.23
2023-05-10T10:59:42.586Z,46.2
2023-05-10T11:00:48.056Z,46.17
2023-05-10T11:01:53.386Z,46.17
2023-05-10T11:02:59.121Z,46.14
2023-05-10T11:04:04.710Z,46.19
2023-05-10T11:05:10.082Z,46.2
2023-05-10T11:06:15.447Z,46.25
2023-05-10T11:07:20.792Z,46.27
2023-05-10T11:08:26.111Z,46.35
2023-05-10T11:09:31.481Z,46.3
2023-05-10T11:10:36.889Z,46.34
2023-05-10T11:11:42.364Z,46.34
2023-05-10T11:12:47.731Z,46.42
2023-05-10T11:13:54.334Z,46.42
2023-05-10T11:14:59.679Z,46.52
2023-05-10T11:16:05.031Z,46.56
2023-05-10T11:17:10.663Z,46.59
2023-05-10T11:18:16.119Z,46.59
2023-05-10T11:19:21.509Z,46.6
2023-05-10T11:20:26.855Z,46.6
2023-05-10T11:21:32.206Z,46.63
2023-05-10T11:22:37.540Z,46.76
2023-05-10T11:23:42.874Z,46.71
2023-05-10T11:24:50.224Z,46.71
2023-05-10T11:25:55.621Z,46.73
2023-05-10T11:27:00.987Z,46.75
2023-05-10T11:28:06.511Z,46.8
2023-05-10T11:29:11.845Z,46.8
2023-05-10T11:30:18.301Z,46.84
2023-05-10T11:31:24.257Z,46.9
2023-05-10T11:32:29.865Z,47.05
2023-05-10T11:33:35.332Z,46.98
2023-05-10T11:34:40.663Z,46.98
2023-05-10T11:35:46.517Z,47.03
2023-05-10T11:36:51.934Z,47.07
2023-05-10T11:37:57.270Z,47.08
2023-05-10T11:39:02.620Z,47.17
2023-05-10T11:40:07.953Z,47.26
2023-05-10T11:41:13.292Z,47.2
2023-05-10T11:42:18.757Z,47.18
2023-05-10T11:43:24.095Z,47.22
2023-05-10T11:44:29.431Z,47.25
2023-05-10T11:45:34.809Z,47.21
2023-05-10T11:46:40.244Z,47.28
2023-05-10T11:47:46.012Z,47.33
2023-05-10T11:48:51.527Z,47.36
2023-05-10T11:49:57.080Z,47.37
2023-05-10T11:51:02.421Z,47.4
2023-05-10T11:52:07.794Z,47.4
2023-05-10T11:53:13.232Z,47.44
2023-05-10T11:54:20.852Z,47.42
2023-05-10T11:55:26.209Z,47.46
2023-05-10T11:56:31.927Z,47.47
2023-05-10T11:57:37.304Z,47.53
2023-05-10T11:58:42.675Z,47.59
2023-05-10T11:59:48.050Z,47.6
2023-05-10T12:00:53.373Z,47.62
2023-05-10T12:01:58.741Z,47.65
2023-05-10T12:03:04.505Z,47.62
2023-05-10T12:04:10.615Z,47.63
2023-05-10T12:05:16.017Z,47.65
2023-05-10T12:06:21.359Z,47.72
2023-05-10T12:07:26.712Z,47.7
2023-05-10T12:08:32.056Z,47.69
2023-05-10T12:09:46.489Z,47.71
2023-05-10T12:10:51.863Z,47.77
2023-05-10T12:11:57.196Z,47.78
2023-05-10T12:13:02.546Z,47.78
2023-05-10T12:14:07.865Z,47.86
2023-05-10T12:15:13.301Z,47.83
2023-05-10T12:16:18.808Z,47.84
2023-05-10T12:17:24.203Z,47.82
2023-05-10T12:18:29.675Z,47.88
2023-05-10T12:19:35.035Z,47.92
2023-05-10T12:20:40.348Z,47.96
2023-05-10T12:21:45.679Z,48.04
2023-05-10T12:22:51.162Z,48.16
2023-05-10T12:23:56.472Z,48.3
2023-05-10T12:25:01.799Z,48.1
2023-05-10T12:26:07.138Z,48.11
2023-05-10T12:27:12.549Z,48.08
2023-05-10T12:28:17.876Z,48.12
2023-05-10T12:29:23.212Z,48.13
2023-05-10T12:30:28.545Z,48.17
2023-05-10T12:31:34.089Z,48.21
2023-05-10T12:32:39.682Z,48.2
2023-05-10T12:33:45.060Z,48.17
2023-05-10T12:34:50.405Z,48.15
2023-05-10T12:35:55.725Z,48.17
2023-05-10T12:37:01.154Z,48.18
2023-05-10T12:38:06.542Z,48.16
2023-05-10T12:39:11.906Z,48.19
2023-05-10T12:40:17.760Z,48.23
2023-05-10T12:41:23.644Z,48.33
2023-05-10T12:42:28.998Z,48.25
2023-05-10T12:43:34.415Z,48.29
2023-05-10T12:44:39.931Z,48.26
2023-05-10T12:45:45.411Z,48.41
2023-05-10T12:46:50.734Z,48.34
2023-05-10T12:47:56.142Z,48.39
2023-05-10T12:49:11.659Z,48.4
2023-05-10T12:50:17.880Z,48.42
2023-05-10T12:51:23.543Z,48.45
2023-05-10T12:52:28.886Z,48.46
2023-05-10T12:53:34.248Z,48.43
2023-05-10T12:54:39.592Z,48.46
2023-05-10T12:55:44.917Z,48.44
2023-05-10T12:56:50.268Z,48.46
2023-05-10T12:57:55.579Z,48.5
2023-05-10T12:59:00.967Z,48.48
2023-05-10T13:00:06.349Z,48.56
2023-05-10T13:01:11.791Z,48.51
2023-05-10T13:02:17.184Z,48.63
2023-05-10T13:03:22.559Z,48.5
2023-05-10T13:04:27.995Z,48.52
2023-05-10T13:05:33.402Z,48.6
2023-05-10T13:06:38.762Z,48.56
2023-05-10T13:07:44.124Z,48.59
2023-05-10T13:08:49.464Z,48.6
2023-05-10T13:09:54.846Z,48.59
2023-05-10T13:11:00.179Z,48.61
2023-05-10T13:12:05.721Z,48.64
2023-05-10T13:13:11.446Z,48.61
2023-05-10T13:14:16.794Z,48.62
2023-05-10T13:15:22.132Z,48.66
2023-05-10T13:16:27.742Z,48.66
2023-05-10T13:17:35.692Z,48.65
2023-05-10T13:18:41.301Z,48.69
2023-05-10T13:19:46.718Z,48.69
2023-05-10T13:20:52.064Z,48.78
2023-05-10T13:21:57.421Z,48.73
2023-05-10T13:23:02.801Z,48.73
2023-05-10T13:24:08.153Z,48.71
2023-05-10T13:25:13.532Z,48.78
2023-05-10T13:26:18.919Z,48.73
2023-05-10T13:27:24.324Z,48.66
2023-05-10T13:28:29.713Z,48.77
2023-05-10T13:29:35.100Z,48.69
2023-05-10T13:30:40.426Z,48.72
2023-05-10T13:31:46.037Z,48.77
2023-05-10T13:32:51.567Z,48.77
2023-05-10T13:33:56.961Z,48.69
2023-05-10T13:35:02.283Z,48.78
2023-05-10T13:36:07.641Z,48.78
2023-05-10T13:37:12.992Z,48.76
2023-05-10T13:38:19.027Z,48.84
2023-05-10T13:39:25.764Z,48.83
2023-05-10T13:40:31.235Z,48.84
2023-05-10T13:41:36.579Z,48.85
2023-05-10T13:42:41.999Z,48.91
2023-05-10T13:43:47.426Z,48.92
2023-05-10T13:44:52.830Z,48.85
2023-05-10T13:45:58.332Z,48.83
2023-05-10T13:47:03.846Z,48.88
2023-05-10T13:48:09.423Z,48.86
2023-05-10T13:49:14.834Z,48.86
2023-05-10T13:50:20.214Z,48.82
2023-05-10T13:51:25.596Z,48.82
2023-05-10T13:52:31.033Z,48.86
2023-05-10T13:53:36.404Z,48.86
2023-05-10T13:54:41.731Z,48.98
2023-05-10T13:55:47.096Z,49.02
2023-05-10T13:56:52.456Z,48.95
2023-05-10T13:57:57.851Z,48.92
2023-05-10T13:59:03.181Z,48.93
2023-05-10T14:00:08.614Z,49
2023-05-10T14:01:14.052Z,48.97
2023-05-10T14:02:19.407Z,48.94
2023-05-10T14:03:25.119Z,48.96
2023-05-10T14:04:30.541Z,49.04
2023-05-10T14:05:35.917Z,49.01
2023-05-10T14:06:41.288Z,48.98
2023-05-10T14:07:46.818Z,49.01